Time;durP1;ratioP1;P1;durP2;ratioP2;P2;SDS_P1;SDS_P2;PMS_P1;PMS_P2;Temp;Humidity;BMP_temperature;BMP_pressure;BME280_temperature;BME280_humidity;BME280_pressure;Samples;Min_cycle;Max_cycle;Signal;HPM_P1;HPM_P2
2024/02/27 00:02:04;;;;;;;24.90;11.30;;;5.80;99.90;;;;;;4990787;28;20026;-49
2024/02/27 00:04:30;;;;;;;22.50;10.20;;;5.80;99.90;;;;;;4992091;28;20027;-51
2024/02/27 00:06:55;;;;;;;25.77;10.00;;;5.80;99.90;;;;;;4991365;28;20034;-48
2024/02/27 00:09:24;;;;;;;22.23;9.83;;;5.80;99.90;;;;;;4996304;28;20403;-53
2024/02/27 00:11:50;;;;;;;22.05;9.43;;;5.80;99.90;;;;;;4996230;28;20030;-53
2024/02/27 00:14:16;;;;;;;24.40;11.30;;;5.80;99.90;;;;;;4996565;28;20044;-49
2024/02/27 00:16:41;;;;;;;23.20;10.67;;;5.70;99.90;;;;;;4996866;28;20073;-49
2024/02/27 00:19:07;;;;;;;18.43;9.90;;;5.70;99.90;;;;;;4996007;28;20033;-51
2024/02/27 00:21:33;;;;;;;22.40;9.90;;;5.80;99.90;;;;;;4996084;28;20435;-49
2024/02/27 00:23:59;;;;;;;23.13;10.33;;;5.70;99.90;;;;;;4996184;28;20092;-52
2024/02/27 00:26:25;;;;;;;21.90;10.27;;;5.70;99.90;;;;;;4996071;28;20038;-53
2024/02/27 00:28:50;;;;;;;23.17;10.20;;;5.70;99.90;;;;;;4996074;28;20057;-54
2024/02/27 00:31:16;;;;;;;24.70;10.10;;;5.70;99.90;;;;;;4995638;28;20486;-53
2024/02/27 00:33:41;;;;;;;21.17;9.40;;;5.80;99.90;;;;;;4995744;28;20041;-54
2024/02/27 00:36:08;;;;;;;27.13;10.80;;;5.80;99.90;;;;;;4995714;28;20026;-53
2024/02/27 00:38:34;;;;;;;21.27;9.43;;;5.80;99.90;;;;;;4995782;28;20501;-53
2024/02/27 00:41:02;;;;;;;19.67;9.43;;;5.80;99.90;;;;;;4995614;28;20113;-53
2024/02/27 00:43:28;;;;;;;20.70;9.55;;;5.70;99.90;;;;;;4995750;28;20073;-54
2024/02/27 00:45:54;;;;;;;20.87;9.27;;;5.70;99.90;;;;;;4995516;28;20077;-53
2024/02/27 00:48:19;;;;;;;22.23;10.10;;;5.70;99.90;;;;;;4995564;28;20042;-51
2024/02/27 00:50:45;;;;;;;20.17;9.17;;;5.70;99.90;;;;;;4995375;28;20117;-52
2024/02/27 00:53:11;;;;;;;21.30;9.73;;;5.70;99.90;;;;;;4995508;28;20041;-50
2024/02/27 00:55:36;;;;;;;20.97;10.00;;;5.70;99.90;;;;;;4995509;28;20117;-54
2024/02/27 00:58:02;;;;;;;21.23;9.47;;;5.70;99.90;;;;;;4995782;28;20030;-51
2024/02/27 01:00:27;;;;;;;22.37;10.67;;;5.70;99.90;;;;;;4995114;28;20034;-51
2024/02/27 01:02:53;;;;;;;23.97;10.30;;;5.70;99.90;;;;;;4995302;28;20058;-53
2024/02/27 01:05:18;;;;;;;19.90;8.90;;;5.70;99.90;;;;;;4995221;28;20022;-50
2024/02/27 01:07:44;;;;;;;21.70;9.00;;;5.70;99.90;;;;;;4995516;28;20450;-50
2024/02/27 01:10:10;;;;;;;17.70;8.77;;;5.70;99.90;;;;;;4995091;28;20080;-49
2024/02/27 01:12:37;;;;;;;20.10;8.97;;;5.70;99.90;;;;;;4995835;28;20089;-51
2024/02/27 01:15:03;;;;;;;20.20;9.33;;;5.70;99.90;;;;;;4995030;28;20479;-50
2024/02/27 01:17:28;;;;;;;23.37;9.63;;;5.70;99.90;;;;;;4995071;28;20061;-53
2024/02/27 01:19:54;;;;;;;19.57;9.10;;;5.70;99.90;;;;;;4994686;28;20210;-54
2024/02/27 01:22:27;;;;;;;21.97;9.40;;;5.70;99.90;;;;;;4995186;28;20117;-53
2024/02/27 01:24:54;;;;;;;24.70;9.80;;;5.70;99.90;;;;;;4994834;28;20073;-52
2024/02/27 01:27:20;;;;;;;19.07;8.93;;;5.70;99.90;;;;;;4993834;28;20030;-53
2024/02/27 01:29:45;;;;;;;17.87;8.77;;;5.70;99.90;;;;;;4994650;28;20372;-54
2024/02/27 01:32:11;;;;;;;20.03;9.23;;;5.70;99.90;;;;;;4993408;28;20045;-53
2024/02/27 01:34:36;;;;;;;20.60;8.60;;;5.70;99.90;;;;;;4994550;28;20109;-52
2024/02/27 01:37:02;;;;;;;20.87;8.93;;;5.70;99.90;;;;;;4994766;28;20033;-54
2024/02/27 01:39:28;;;;;;;20.53;8.93;;;5.70;99.90;;;;;;4994581;28;20034;-53
2024/02/27 01:41:53;;;;;;;19.13;9.17;;;5.70;99.90;;;;;;4994468;28;20088;-53
2024/02/27 01:44:19;;;;;;;21.57;9.13;;;5.60;99.90;;;;;;4994364;28;20038;-54
2024/02/27 01:46:45;;;;;;;20.93;9.23;;;5.70;99.90;;;;;;4993469;28;20030;-53
2024/02/27 01:49:13;;;;;;;22.63;10.23;;;5.70;99.90;;;;;;4993570;28;20538;-54
2024/02/27 01:51:40;;;;;;;19.83;9.00;;;5.70;99.90;;;;;;4994439;28;20050;-54
2024/02/27 01:54:06;;;;;;;19.43;8.83;;;5.70;99.90;;;;;;4993218;28;20121;-54
2024/02/27 01:56:32;;;;;;;21.27;9.03;;;5.70;99.90;;;;;;4994520;28;20395;-54
2024/02/27 01:58:58;;;;;;;21.27;9.60;;;5.70;99.90;;;;;;4994314;28;20034;-54
2024/02/27 02:01:24;;;;;;;21.00;9.20;;;5.70;99.90;;;;;;4994569;28;20038;-49
2024/02/27 02:03:51;;;;;;;20.90;9.57;;;5.70;99.90;;;;;;4994337;28;20034;-49
2024/02/27 02:06:17;;;;;;;22.23;9.53;;;5.70;99.90;;;;;;4994341;28;20038;-49
2024/02/27 02:08:43;;;;;;;20.13;9.00;;;5.70;99.90;;;;;;4994851;28;20061;-49
2024/02/27 02:11:11;;;;;;;22.63;9.30;;;5.60;99.90;;;;;;4993033;28;20036;-49
2024/02/27 02:13:37;;;;;;;19.23;8.40;;;5.60;99.90;;;;;;4994424;28;20121;-49
2024/02/27 02:16:04;;;;;;;21.67;9.67;;;5.60;99.90;;;;;;4994691;28;20395;-49
2024/02/27 02:18:29;;;;;;;19.97;8.80;;;5.60;99.90;;;;;;4994417;28;20018;-54
2024/02/27 02:20:55;;;;;;;18.87;8.43;;;5.70;99.90;;;;;;4992581;28;20506;-54
2024/02/27 02:23:21;;;;;;;20.07;8.87;;;5.70;99.90;;;;;;4993857;28;20077;-53
2024/02/27 02:25:47;;;;;;;20.37;9.27;;;5.70;99.90;;;;;;4993819;28;20149;-53
2024/02/27 02:28:14;;;;;;;22.03;9.53;;;5.70;99.90;;;;;;4993695;28;20059;-53
2024/02/27 02:30:41;;;;;;;22.97;9.70;;;5.70;99.90;;;;;;4992862;28;20038;-53
2024/02/27 02:33:07;;;;;;;20.57;9.10;;;5.60;99.90;;;;;;4993583;28;20480;-52
2024/02/27 02:35:32;;;;;;;20.60;8.77;;;5.60;99.90;;;;;;4993588;28;20030;-53
2024/02/27 02:37:58;;;;;;;20.07;9.30;;;5.60;99.90;;;;;;4993585;28;20406;-53
2024/02/27 02:40:25;;;;;;;21.60;9.57;;;5.60;99.90;;;;;;4993385;28;20026;-54
2024/02/27 02:42:51;;;;;;;21.30;9.57;;;5.60;99.90;;;;;;4993320;28;20034;-53
2024/02/27 02:45:17;;;;;;;19.60;8.87;;;5.60;99.90;;;;;;4993465;28;20121;-50
2024/02/27 02:47:43;;;;;;;21.37;9.37;;;5.60;99.90;;;;;;4993637;28;20029;-49
2024/02/27 02:50:11;;;;;;;20.27;8.83;;;5.60;99.90;;;;;;4993110;28;20022;-50
2024/02/27 02:52:38;;;;;;;21.03;9.50;;;5.60;99.90;;;;;;4993342;28;20463;-49
2024/02/27 02:55:07;;;;;;;23.17;9.73;;;5.60;99.90;;;;;;4993092;28;20092;-49
2024/02/27 02:57:33;;;;;;;21.77;9.13;;;5.60;99.90;;;;;;4993227;28;20033;-49
2024/02/27 02:59:58;;;;;;;26.50;10.53;;;5.60;99.90;;;;;;4993066;28;20026;-49
2024/02/27 03:02:24;;;;;;;20.33;9.80;;;5.60;99.90;;;;;;4993170;28;20081;-49
2024/02/27 03:04:50;;;;;;;22.07;9.57;;;5.60;99.90;;;;;;4992995;28;20480;-50
2024/02/27 03:07:15;;;;;;;20.00;9.37;;;5.60;99.90;;;;;;4993087;28;20029;-49
2024/02/27 03:09:41;;;;;;;23.30;9.53;;;5.60;99.90;;;;;;4993100;28;20030;-51
2024/02/27 03:12:07;;;;;;;21.70;9.97;;;5.60;99.90;;;;;;4992709;28;20124;-49
2024/02/27 03:14:33;;;;;;;24.00;10.40;;;5.50;99.90;;;;;;4993011;28;20085;-50
2024/02/27 03:16:58;;;;;;;23.10;9.80;;;5.60;99.90;;;;;;4992939;28;20034;-50
2024/02/27 03:19:26;;;;;;;22.73;9.57;;;5.50;99.90;;;;;;4992728;28;20141;-49
2024/02/27 03:21:55;;;;;;;21.47;9.33;;;5.50;99.90;;;;;;4992813;28;20023;-49
2024/02/27 03:24:21;;;;;;;24.45;10.07;;;5.50;99.90;;;;;;4992664;28;20026;-49
2024/02/27 03:26:47;;;;;;;26.63;10.00;;;5.50;99.90;;;;;;4991566;28;20038;-50
2024/02/27 03:29:14;;;;;;;26.77;10.67;;;5.50;99.90;;;;;;4992574;28;20027;-49
2024/02/27 03:31:39;;;;;;;22.63;9.70;;;5.50;99.90;;;;;;4992618;28;20380;-49
2024/02/27 03:34:05;;;;;;;23.83;10.07;;;5.50;99.90;;;;;;4992514;28;20026;-50
2024/02/27 03:36:30;;;;;;;20.50;9.53;;;5.50;99.90;;;;;;4993231;28;20395;-53
2024/02/27 03:38:56;;;;;;;21.83;9.87;;;5.50;99.90;;;;;;4992486;28;20582;-54
2024/02/27 03:41:22;;;;;;;24.87;10.10;;;5.40;99.90;;;;;;4992242;28;20022;-54
2024/02/27 03:43:47;;;;;;;27.20;9.53;;;5.40;99.90;;;;;;4992533;28;20125;-54
2024/02/27 03:46:13;;;;;;;23.17;10.37;;;5.40;99.90;;;;;;4990436;28;20124;-54
2024/02/27 03:48:38;;;;;;;22.63;10.47;;;5.50;99.90;;;;;;4991778;28;20030;-52
2024/02/27 03:51:04;;;;;;;22.27;9.73;;;5.40;99.90;;;;;;4991516;28;20610;-53
2024/02/27 03:53:30;;;;;;;25.87;9.67;;;5.40;99.90;;;;;;4991561;28;20034;-54
2024/02/27 03:55:56;;;;;;;23.30;10.80;;;5.40;99.90;;;;;;4991658;28;20109;-52
2024/02/27 03:58:22;;;;;;;22.90;9.47;;;5.40;99.90;;;;;;4991654;28;20118;-52
2024/02/27 04:00:47;;;;;;;23.20;9.67;;;5.30;99.90;;;;;;4991351;28;20034;-54
2024/02/27 04:03:13;;;;;;;25.80;10.87;;;5.30;99.90;;;;;;4991565;28;20391;-54
2024/02/27 04:05:40;;;;;;;26.53;10.13;;;5.30;99.90;;;;;;4991351;28;20043;-54
2024/02/27 04:08:08;;;;;;;24.17;10.80;;;5.30;99.90;;;;;;4991414;28;20479;-54
2024/02/27 04:10:37;;;;;;;22.30;9.93;;;5.20;99.90;;;;;;4991463;28;20117;-54
2024/02/27 04:13:03;;;;;;;19.73;8.98;;;5.20;99.90;;;;;;4991308;28;20089;-53
2024/02/27 04:15:29;;;;;;;25.07;10.10;;;5.20;99.90;;;;;;4991299;28;20066;-53
2024/02/27 04:17:56;;;;;;;29.27;11.70;;;5.20;99.90;;;;;;4991387;28;20399;-54
2024/02/27 04:20:22;;;;;;;22.63;9.73;;;5.20;99.90;;;;;;4991125;28;20042;-50
2024/02/27 04:22:48;;;;;;;26.27;11.23;;;5.20;99.90;;;;;;4991317;28;20037;-54
2024/02/27 04:25:14;;;;;;;22.83;10.60;;;5.20;99.90;;;;;;4991357;28;20026;-53
2024/02/27 04:27:40;;;;;;;23.73;10.30;;;5.20;99.90;;;;;;4991200;28;20034;-54
2024/02/27 04:30:07;;;;;;;21.93;10.47;;;5.20;99.90;;;;;;4990967;28;20023;-52
2024/02/27 04:32:33;;;;;;;24.33;9.53;;;5.20;99.90;;;;;;4989846;28;20038;-54
2024/02/27 04:34:59;;;;;;;22.73;9.80;;;5.20;99.90;;;;;;4990980;28;20031;-54
2024/02/27 04:37:24;;;;;;;25.23;10.83;;;5.20;99.90;;;;;;4991142;28;20399;-53
2024/02/27 04:39:50;;;;;;;26.93;10.73;;;5.30;99.90;;;;;;4990943;28;20033;-53
2024/02/27 04:42:15;;;;;;;25.47;10.30;;;5.20;99.90;;;;;;4990911;28;20069;-54
2024/02/27 04:44:41;;;;;;;23.13;10.10;;;5.20;99.90;;;;;;4955025;28;1049422;-53
2024/02/27 04:47:07;;;;;;;26.80;10.53;;;5.20;99.90;;;;;;4991882;28;20423;-53
2024/02/27 04:49:33;;;;;;;23.77;10.23;;;5.20;99.90;;;;;;4991886;28;20039;-54
2024/02/27 04:51:58;;;;;;;26.07;10.57;;;5.20;99.90;;;;;;4991589;28;20065;-54
2024/02/27 04:54:24;;;;;;;26.30;10.77;;;5.20;99.90;;;;;;4994222;28;20037;-49
2024/02/27 04:56:50;;;;;;;23.53;10.63;;;5.20;99.90;;;;;;4994589;28;20488;-49
2024/02/27 04:59:15;;;;;;;24.30;10.77;;;5.20;99.90;;;;;;4995455;28;20113;-54
2024/02/27 05:01:45;;;;;;;23.73;10.17;;;5.20;99.90;;;;;;4995228;28;20029;-53
2024/02/27 05:04:10;;;;;;;;;;;5.20;99.90;;;;;;4995785;28;20089;-53
2024/02/27 05:06:36;;;;;;;23.83;9.37;;;5.20;99.90;;;;;;4994041;28;19918;-49
2024/02/27 05:09:03;;;;;;;24.53;10.97;;;5.20;99.90;;;;;;4995308;28;20368;-53
2024/02/27 05:11:28;;;;;;;22.20;9.60;;;5.20;99.90;;;;;;4995058;28;20045;-53
2024/02/27 05:13:54;;;;;;;27.07;10.00;;;5.10;99.90;;;;;;4995067;28;20030;-54
2024/02/27 05:16:20;;;;;;;28.13;11.33;;;5.20;99.90;;;;;;4995095;28;20049;-54
2024/02/27 05:18:45;;;;;;;27.03;10.30;;;5.20;99.90;;;;;;4995153;28;20026;-54
2024/02/27 05:21:11;;;;;;;26.37;10.23;;;5.20;99.90;;;;;;4994869;28;20105;-54
2024/02/27 05:23:37;;;;;;;23.50;10.07;;;5.10;99.90;;;;;;4994115;28;20042;-49
2024/02/27 05:26:03;;;;;;;24.37;9.63;;;5.10;99.90;;;;;;4995013;28;20034;-49
2024/02/27 05:28:29;;;;;;;25.13;10.60;;;5.10;99.90;;;;;;4995046;28;20034;-49
2024/02/27 05:30:56;;;;;;;22.53;9.47;;;5.10;99.90;;;;;;4994863;28;20091;-50
2024/02/27 05:33:21;;;;;;;26.33;11.27;;;5.10;99.90;;;;;;4994865;28;20554;-52
2024/02/27 05:35:47;;;;;;;26.30;9.97;;;5.10;99.90;;;;;;4994826;28;20114;-48
2024/02/27 05:38:13;;;;;;;25.87;11.03;;;5.10;99.90;;;;;;4994955;28;20034;-53
2024/02/27 05:40:38;;;;;;;26.77;10.97;;;5.00;99.90;;;;;;4994668;28;20070;-50
2024/02/27 05:43:04;;;;;;;26.13;9.70;;;5.00;99.90;;;;;;4994729;28;20029;-50
2024/02/27 05:45:31;;;;;;;24.37;10.33;;;5.00;99.90;;;;;;4994651;28;20096;-50
2024/02/27 05:47:57;;;;;;;24.37;10.23;;;5.00;99.90;;;;;;4993957;28;20065;-51
2024/02/27 05:50:23;;;;;;;26.37;11.13;;;5.00;99.90;;;;;;4994479;28;20026;-54
2024/02/27 05:52:48;;;;;;;24.87;10.83;;;5.00;99.90;;;;;;4994671;28;20081;-54
2024/02/27 05:55:14;;;;;;;23.23;10.27;;;4.90;99.90;;;;;;4994608;28;20038;-53
2024/02/27 05:57:40;;;;;;;27.80;10.73;;;4.90;99.90;;;;;;4994684;28;20053;-52
2024/02/27 06:00:09;;;;;;;27.03;11.27;;;5.00;99.90;;;;;;4994274;28;20035;-50
2024/02/27 06:02:36;;;;;;;29.90;11.65;;;4.90;99.90;;;;;;4994481;28;20030;-53
2024/02/27 06:05:02;;;;;;;28.90;11.33;;;4.90;99.90;;;;;;4993270;28;20522;-52
2024/02/27 06:07:27;;;;;;;21.93;9.67;;;4.90;99.90;;;;;;4994739;28;20377;-50
2024/02/27 06:09:54;;;;;;;25.80;9.70;;;4.90;99.90;;;;;;4994346;28;20042;-52
2024/02/27 06:12:19;;;;;;;25.50;10.37;;;5.00;99.90;;;;;;4994309;28;20062;-55
2024/02/27 06:14:45;;;;;;;24.53;10.90;;;5.00;99.90;;;;;;4994138;28;20514;-53
2024/02/27 06:17:10;;;;;;;25.27;10.40;;;5.00;99.90;;;;;;4994007;28;20072;-54
2024/02/27 06:19:43;;;;;;;24.53;10.57;;;5.00;99.90;;;;;;4994173;28;20375;-54
2024/02/27 06:22:10;;;;;;;27.77;10.33;;;4.90;99.90;;;;;;4993876;28;20077;-55
2024/02/27 06:24:37;;;;;;;28.30;11.30;;;4.90;99.90;;;;;;4993923;28;20041;-51
2024/02/27 06:27:03;;;;;;;26.87;10.27;;;5.00;99.90;;;;;;4993899;28;20034;-53
2024/02/27 06:29:28;;;;;;;26.47;10.77;;;4.90;99.90;;;;;;4993804;28;20073;-55
2024/02/27 06:31:54;;;;;;;28.10;10.80;;;4.90;99.90;;;;;;4993696;28;20132;-51
2024/02/27 06:34:20;;;;;;;25.40;9.67;;;4.90;99.90;;;;;;4993731;28;20031;-52
2024/02/27 06:36:46;;;;;;;27.03;11.00;;;4.80;99.90;;;;;;4993837;28;20037;-52
2024/02/27 06:39:12;;;;;;;26.17;10.80;;;4.80;99.90;;;;;;4993951;28;20105;-53
2024/02/27 06:41:38;;;;;;;30.53;11.67;;;4.80;99.90;;;;;;4993565;28;20452;-54
2024/02/27 06:44:05;;;;;;;29.57;11.83;;;4.80;99.90;;;;;;4993366;28;20035;-52
2024/02/27 06:46:31;;;;;;;25.37;10.70;;;4.80;99.90;;;;;;4993498;28;20125;-52
2024/02/27 06:48:57;;;;;;;26.80;10.93;;;4.80;99.90;;;;;;4993401;28;20460;-54
2024/02/27 06:51:22;;;;;;;22.83;9.50;;;4.80;99.90;;;;;;4993198;28;20030;-53
2024/02/27 06:53:48;;;;;;;28.50;10.43;;;4.80;99.90;;;;;;4993410;28;20037;-53
2024/02/27 06:56:14;;;;;;;26.63;10.27;;;4.90;99.90;;;;;;4993444;28;20081;-49
2024/02/27 06:58:40;;;;;;;24.47;10.27;;;4.90;99.90;;;;;;4993493;28;20460;-53
2024/02/27 07:01:05;;;;;;;24.00;9.80;;;4.90;99.90;;;;;;4993225;28;20030;-50
2024/02/27 07:03:31;;;;;;;24.47;10.10;;;4.90;99.90;;;;;;4993474;28;20093;-54
2024/02/27 07:06:00;;;;;;;25.17;10.53;;;4.90;99.90;;;;;;4991941;28;20042;-53
2024/02/27 07:08:26;;;;;;;25.33;10.35;;;4.90;99.90;;;;;;4993596;28;20042;-51
2024/02/27 07:10:52;;;;;;;24.07;9.80;;;5.00;99.90;;;;;;4993552;28;20030;-50
2024/02/27 07:13:18;;;;;;;25.93;10.50;;;4.90;99.90;;;;;;4994040;28;20375;-54
2024/02/27 07:15:44;;;;;;;24.33;10.17;;;4.90;99.90;;;;;;4992833;28;20030;-54
2024/02/27 07:18:15;;;;;;;24.33;10.10;;;4.90;99.90;;;;;;4993212;28;20065;-54
2024/02/27 07:20:41;;;;;;;29.33;10.90;;;4.90;99.90;;;;;;4991952;28;20096;-53
2024/02/27 07:23:07;;;;;;;26.10;10.73;;;5.00;99.90;;;;;;4993333;28;20117;-50
2024/02/27 07:25:32;;;;;;;26.90;10.60;;;5.00;99.90;;;;;;4993453;28;20074;-51
2024/02/27 07:27:58;;;;;;;26.13;10.10;;;5.10;99.90;;;;;;4992192;28;20042;-50
2024/02/27 07:30:24;;;;;;;24.87;10.00;;;5.10;99.90;;;;;;4992977;28;20530;-52
2024/02/27 07:32:50;;;;;;;25.43;10.40;;;5.10;99.90;;;;;;4994054;28;20042;-51
2024/02/27 07:35:15;;;;;;;21.37;9.40;;;5.10;99.90;;;;;;4993624;28;20081;-50
2024/02/27 07:37:41;;;;;;;25.37;10.87;;;5.10;99.90;;;;;;4992106;28;20491;-54
2024/02/27 07:40:07;;;;;;;22.23;9.93;;;5.10;99.90;;;;;;4992834;28;20045;-50
2024/02/27 07:42:33;;;;;;;24.93;10.17;;;5.20;99.90;;;;;;4993082;28;20057;-49
2024/02/27 07:44:59;;;;;;;26.33;11.03;;;5.20;99.90;;;;;;4993333;28;20072;-51
2024/02/27 07:47:25;;;;;;;24.90;9.60;;;5.20;99.90;;;;;;4993064;28;20471;-54
2024/02/27 07:49:51;;;;;;;25.00;9.60;;;5.30;99.90;;;;;;4992456;28;20049;-54
2024/02/27 07:52:16;;;;;;;26.77;10.70;;;5.30;99.90;;;;;;4992371;28;20038;-54
2024/02/27 07:54:42;;;;;;;24.43;10.37;;;5.30;99.90;;;;;;4992519;28;20541;-49
2024/02/27 07:57:08;;;;;;;29.17;10.90;;;5.30;99.90;;;;;;4992535;28;20030;-49
2024/02/27 07:59:34;;;;;;;25.87;10.33;;;5.30;99.90;;;;;;4992494;28;20035;-54
2024/02/27 08:01:59;;;;;;;25.10;10.97;;;5.30;99.90;;;;;;4992214;28;20072;-54
2024/02/27 08:04:25;;;;;;;26.43;10.00;;;5.30;99.90;;;;;;4992293;28;20377;-54
2024/02/27 08:06:50;;;;;;;28.90;11.47;;;5.30;99.90;;;;;;4992386;28;20026;-50
2024/02/27 08:09:16;;;;;;;29.33;11.50;;;5.30;99.90;;;;;;4992368;28;20034;-54
2024/02/27 08:11:42;;;;;;;28.37;11.03;;;5.30;99.90;;;;;;4992082;28;20399;-54
2024/02/27 08:14:08;;;;;;;26.27;11.03;;;5.20;99.90;;;;;;4991956;28;20042;-54
2024/02/27 08:16:33;;;;;;;26.23;11.00;;;5.20;99.90;;;;;;4992269;28;20479;-52
2024/02/27 08:19:03;;;;;;;31.53;11.87;;;5.30;99.90;;;;;;4992231;28;20035;-54
2024/02/27 08:21:30;;;;;;;23.50;10.47;;;5.30;99.90;;;;;;4992016;28;20030;-55
2024/02/27 08:23:56;;;;;;;28.13;11.50;;;5.30;99.90;;;;;;4990596;28;20483;-54
2024/02/27 08:26:22;;;;;;;27.70;11.50;;;5.30;99.90;;;;;;4991957;28;20030;-54
2024/02/27 08:28:48;;;;;;;26.77;11.23;;;5.30;99.90;;;;;;4993900;28;20395;-53
2024/02/27 08:31:14;;;;;;;27.27;12.17;;;5.30;99.90;;;;;;4995881;28;20026;-52
2024/02/27 08:33:40;;;;;;;30.73;12.57;;;5.30;99.90;;;;;;4995838;28;20057;-55
2024/02/27 08:36:06;;;;;;;38.03;14.40;;;5.30;99.90;;;;;;4995785;28;20036;-53
2024/02/27 08:38:32;;;;;;;30.13;13.10;;;5.30;99.90;;;;;;4995838;28;20117;-52
2024/02/27 08:41:00;;;;;;;31.00;12.87;;;5.30;99.90;;;;;;4995658;28;20129;-55
2024/02/27 08:43:26;;;;;;;30.73;12.63;;;5.40;99.90;;;;;;4995820;28;20064;-55
2024/02/27 08:45:52;;;;;;;28.27;11.40;;;5.40;99.90;;;;;;4995556;28;20061;-54
2024/02/27 08:48:18;;;;;;;28.10;12.07;;;5.50;99.90;;;;;;4994409;28;20041;-55
2024/02/27 08:50:45;;;;;;;29.53;13.33;;;5.50;99.90;;;;;;4995443;28;20387;-54
2024/02/27 08:53:11;;;;;;;31.70;13.70;;;5.60;99.90;;;;;;4995664;28;20046;-55
2024/02/27 08:55:37;;;;;;;32.93;13.77;;;5.60;99.90;;;;;;4995450;28;20034;-54
2024/02/27 08:58:04;;;;;;;28.63;12.47;;;5.70;99.90;;;;;;4995425;28;20105;-54
2024/02/27 09:00:30;;;;;;;30.23;12.80;;;5.80;99.90;;;;;;4995274;28;20026;-55
2024/02/27 09:02:55;;;;;;;28.87;12.53;;;6.00;99.90;;;;;;4994084;28;20033;-53
2024/02/27 09:05:21;;;;;;;33.83;13.13;;;6.10;99.90;;;;;;4995176;28;20499;-53
2024/02/27 09:07:47;;;;;;;24.93;11.83;;;6.10;99.90;;;;;;4995221;28;20041;-55
2024/02/27 09:10:12;;;;;;;29.90;12.97;;;6.20;99.90;;;;;;4995007;28;20029;-55
2024/02/27 09:12:40;;;;;;;25.43;12.37;;;6.30;99.90;;;;;;4995309;28;20031;-53
2024/02/27 09:15:06;;;;;;;25.37;11.77;;;6.30;99.90;;;;;;4995267;28;20122;-50
2024/02/27 09:17:32;;;;;;;25.90;12.37;;;6.30;99.90;;;;;;4995300;28;20034;-52
2024/02/27 09:19:58;;;;;;;22.43;11.07;;;6.40;99.90;;;;;;4995029;28;20036;-54
2024/02/27 09:22:24;;;;;;;26.87;12.03;;;6.60;99.90;;;;;;4995198;28;20061;-51
2024/02/27 09:24:49;;;;;;;29.20;13.40;;;6.60;99.90;;;;;;4994899;28;20072;-51
2024/02/27 09:27:15;;;;;;;24.57;11.93;;;6.70;99.90;;;;;;4995497;28;20092;-54
2024/02/27 09:29:42;;;;;;;27.70;12.20;;;6.90;99.90;;;;;;4994857;28;20074;-54
2024/02/27 09:32:07;;;;;;;25.87;11.87;;;6.90;99.90;;;;;;4994769;28;20034;-51
2024/02/27 09:34:33;;;;;;;27.43;12.23;;;6.90;99.90;;;;;;4994775;28;20049;-54
2024/02/27 09:36:59;;;;;;;24.33;11.77;;;7.00;99.90;;;;;;4993524;28;20041;-50
2024/02/27 09:39:24;;;;;;;24.50;11.73;;;7.10;99.90;;;;;;4994461;28;20093;-51
2024/02/27 09:42:01;;;;;;;25.83;11.60;;;7.10;99.90;;;;;;4994756;28;20146;-54
2024/02/27 09:44:27;;;;;;;29.67;12.53;;;7.20;99.90;;;;;;4994801;28;20121;-50
2024/02/27 09:46:53;;;;;;;25.73;12.30;;;7.10;99.90;;;;;;4995375;28;20070;-54
2024/02/27 09:49:21;;;;;;;30.30;13.10;;;6.90;99.90;;;;;;4995314;28;20436;-53
2024/02/27 09:51:49;;;;;;;28.73;12.93;;;6.70;99.90;;;;;;4994494;28;20038;-51
2024/02/27 09:54:15;;;;;;;26.30;12.60;;;6.60;99.90;;;;;;4994698;28;20410;-53
2024/02/27 09:56:42;;;;;;;30.53;14.00;;;6.30;99.90;;;;;;4994821;28;20031;-49
2024/02/27 09:59:07;;;;;;;25.27;12.20;;;6.20;99.90;;;;;;4994646;28;20040;-54
2024/02/27 10:01:36;;;;;;;31.63;14.43;;;6.30;99.90;;;;;;4994399;28;20154;-54
2024/02/27 10:04:03;;;;;;;29.73;14.23;;;6.20;99.90;;;;;;4994463;28;20149;-53
2024/02/27 10:06:32;;;;;;;34.83;14.70;;;6.00;99.90;;;;;;4994613;28;20038;-49
2024/02/27 10:08:59;;;;;;;;;;;5.80;99.90;;;;;;4995101;28;20407;-51
2024/02/27 10:11:25;;;;;;;29.00;12.93;;;5.80;99.90;;;;;;4994144;28;20363;-52
2024/02/27 10:13:51;;;;;;;28.87;12.37;;;5.80;99.90;;;;;;4994410;28;20027;-52
2024/02/27 10:16:20;;;;;;;29.53;13.77;;;5.70;99.90;;;;;;4994391;28;20141;-54
2024/02/27 10:18:46;;;;;;;33.70;14.17;;;5.70;99.90;;;;;;4994188;28;20037;-51
2024/02/27 10:21:12;;;;;;;29.13;12.97;;;5.70;99.90;;;;;;4993930;28;20034;-55
2024/02/27 10:23:37;;;;;;;27.57;13.57;;;5.80;99.90;;;;;;4994420;28;20057;-55
2024/02/27 10:26:11;;;;;;;29.43;13.27;;;5.90;99.90;;;;;;4994091;28;20038;-54
2024/02/27 10:28:37;;;;;;;29.10;13.40;;;5.90;99.90;;;;;;4994245;28;20058;-53
2024/02/27 10:31:05;;;;;;;33.73;13.93;;;5.90;99.90;;;;;;4993896;28;20030;-52
2024/02/27 10:33:31;;;;;;;26.53;12.40;;;5.90;99.90;;;;;;4993789;28;20389;-54
2024/02/27 10:35:57;;;;;;;25.80;13.23;;;6.00;99.90;;;;;;4993910;28;20034;-52
2024/02/27 10:38:23;;;;;;;27.80;13.07;;;6.00;99.90;;;;;;4994030;28;20023;-54
2024/02/27 10:40:49;;;;;;;30.47;13.83;;;6.00;99.90;;;;;;4994095;28;20089;-54
2024/02/27 10:43:14;;;;;;;29.60;13.67;;;6.00;99.90;;;;;;4993780;28;20034;-54
2024/02/27 10:45:40;;;;;;;29.37;13.70;;;6.00;99.90;;;;;;4993464;28;20031;-55
2024/02/27 10:48:07;;;;;;;31.60;13.60;;;6.00;99.90;;;;;;4992130;28;20034;-52
2024/02/27 10:50:34;;;;;;;30.47;14.13;;;6.00;99.90;;;;;;4992991;28;20035;-53
2024/02/27 10:53:00;;;;;;;32.53;14.93;;;6.00;99.90;;;;;;4992102;28;20038;-54
2024/02/27 10:55:28;;;;;;;31.07;13.77;;;6.10;99.90;;;;;;4993291;28;20066;-55
2024/02/27 10:57:59;;;;;;;30.00;13.60;;;6.20;99.90;;;;;;4992343;28;20599;-55
2024/02/27 11:00:26;;;;;;;30.60;14.57;;;6.50;99.90;;;;;;4993199;28;20149;-52
2024/02/27 11:02:56;;;;;;;32.07;14.97;;;6.70;99.90;;;;;;4993323;28;20034;-50
2024/02/27 11:05:23;;;;;;;29.33;14.30;;;7.00;99.90;;;;;;4993283;28;20042;-54
2024/02/27 11:07:50;;;;;;;29.43;13.83;;;7.50;99.90;;;;;;4993283;28;20041;-54
2024/02/27 11:10:17;;;;;;;28.40;13.63;;;7.90;99.90;;;;;;4992984;28;20026;-53
2024/02/27 11:12:47;;;;;;;23.63;12.83;;;8.50;99.90;;;;;;4991893;28;20546;-49
2024/02/27 11:15:12;;;;;;;;;;;8.80;99.90;;;;;;4993420;28;20042;-52
2024/02/27 11:17:43;;;;;;;24.43;12.23;;;9.20;99.90;;;;;;4993138;28;19916;-50
2024/02/27 11:20:11;;;;;;;21.42;11.95;;;9.90;99.90;;;;;;4992900;28;20105;-54
2024/02/27 11:22:40;;;;;;;25.02;13.38;;;10.80;99.90;;;;;;4992986;28;20053;-54
2024/02/27 11:25:08;;;;;;;24.88;12.63;;;11.20;99.90;;;;;;4992912;28;20066;-54
2024/02/27 11:27:35;;;;;;;22.38;12.43;;;11.20;99.90;;;;;;4992843;28;20407;-54
2024/02/27 11:30:01;;;;;;;24.60;13.27;;;11.20;99.90;;;;;;4992666;28;20041;-53
2024/02/27 11:32:28;;;;;;;22.70;11.95;;;11.00;99.90;;;;;;4993075;28;20495;-55
2024/02/27 11:34:54;;;;;;;24.80;13.40;;;10.60;99.90;;;;;;4992676;28;20045;-54
2024/02/27 11:37:21;;;;;;;23.10;12.40;;;10.30;99.90;;;;;;4992823;28;20554;-50
2024/02/27 11:39:47;;;;;;;23.33;12.75;;;9.90;99.90;;;;;;4993002;28;20088;-53
2024/02/27 11:42:25;;;;;;;24.08;12.63;;;9.50;99.90;;;;;;4992632;28;20030;-51
2024/02/27 11:45:07;;;;;;;25.70;12.40;;;9.20;99.90;;;;;;4992488;28;20446;-54
2024/02/27 11:47:44;;;;;;;25.43;12.13;;;9.00;99.90;;;;;;4993080;28;20138;-55
2024/02/27 11:50:11;;;;;;;22.40;11.80;;;8.80;99.90;;;;;;4992353;28;20479;-53
2024/02/27 11:52:41;;;;;;;19.98;10.75;;;9.30;99.90;;;;;;4992760;28;20496;-54
2024/02/27 11:55:08;;;;;;;19.55;10.63;;;10.00;99.90;;;;;;4992452;28;20037;-50
2024/02/27 11:57:35;;;;;;;19.58;10.10;;;10.60;99.90;;;;;;4992570;28;20030;-50
2024/02/27 12:00:09;;;;;;;18.42;10.43;;;11.30;99.90;;;;;;4990948;28;20080;-50
2024/02/27 12:02:36;;;;;;;18.08;9.38;;;11.80;99.90;;;;;;4991858;28;20074;-50
2024/02/27 12:05:05;;;;;;;18.70;9.32;;;12.70;99.90;;;;;;4992200;28;20038;-50
2024/02/27 12:07:32;;;;;;;17.70;8.95;;;13.30;99.90;;;;;;4992626;28;20538;-52
2024/02/27 12:10:09;;;;;;;16.33;9.30;;;14.20;99.90;;;;;;4990975;28;20411;-51
2024/02/27 12:12:39;;;;;;;18.48;11.10;;;14.40;99.90;;;;;;4992297;28;20045;-50
2024/02/27 12:15:06;;;;;;;18.02;9.30;;;14.60;99.10;;;;;;4992066;28;20046;-53
2024/02/27 12:17:33;;;;;;;15.75;8.95;;;15.40;98.80;;;;;;4992226;28;20037;-54
2024/02/27 12:20:09;;;;;;;16.58;9.52;;;15.50;97.10;;;;;;4992089;28;20049;-53
2024/02/27 12:22:36;;;;;;;16.70;9.45;;;15.00;97.90;;;;;;4992267;28;20439;-54
2024/02/27 12:25:02;;;;;;;17.77;10.52;;;14.50;98.70;;;;;;4992295;28;20062;-52
2024/02/27 12:27:27;;;;;;;17.73;11.15;;;14.00;99.00;;;;;;4992214;28;20053;-51
2024/02/27 12:29:53;;;;;;;19.23;10.82;;;13.50;99.90;;;;;;4990836;28;20507;-50
2024/02/27 12:32:20;;;;;;;17.95;10.57;;;13.00;99.90;;;;;;4991809;28;20069;-54
2024/02/27 12:34:48;;;;;;;20.08;11.20;;;12.70;99.90;;;;;;4991972;28;20038;-55
2024/02/27 12:37:18;;;;;;;17.98;10.60;;;12.90;99.90;;;;;;4990748;28;20054;-54